sensor_id;sensor_type;location;lat;lon;timestamp;P1;durP1;ratioP1;P2;durP2;ratioP2
19664;SDS011;9980;51.020;7.772;2022-10-16T00:01:39;2.00;;;1.50;;
19664;SDS011;9980;51.020;7.772;2022-10-16T00:04:06;1.40;;;1.30;;
19664;SDS011;9980;51.020;7.772;2022-10-16T00:06:34;6.53;;;1.60;;
19664;SDS011;9980;51.020;7.772;2022-10-16T00:09:01;6.57;;;1.40;;
19664;SDS011;9980;51.020;7.772;2022-10-16T00:11:30;1.60;;;1.47;;
19664;SDS011;9980;51.020;7.772;2022-10-16T00:14:00;2.17;;;1.80;;
19664;SDS011;9980;51.020;7.772;2022-10-16T00:16:30;3.70;;;1.70;;
19664;SDS011;9980;51.020;7.772;2022-10-16T00:18:57;2.13;;;1.40;;
19664;SDS011;9980;51.020;7.772;2022-10-16T00:21:25;2.37;;;1.40;;
19664;SDS011;9980;51.020;7.772;2022-10-16T00:23:56;2.33;;;1.60;;
19664;SDS011;9980;51.020;7.772;2022-10-16T00:26:31;7.77;;;2.17;;
19664;SDS011;9980;51.020;7.772;2022-10-16T00:29:00;3.40;;;2.10;;
19664;SDS011;9980;51.020;7.772;2022-10-16T00:31:28;4.83;;;3.23;;
19664;SDS011;9980;51.020;7.772;2022-10-16T00:33:55;5.33;;;4.30;;
19664;SDS011;9980;51.020;7.772;2022-10-16T00:36:24;3.83;;;3.37;;
19664;SDS011;9980;51.020;7.772;2022-10-16T00:38:52;3.87;;;3.57;;
19664;SDS011;9980;51.020;7.772;2022-10-16T00:41:31;5.13;;;3.27;;
19664;SDS011;9980;51.020;7.772;2022-10-16T00:44:00;3.03;;;2.73;;
19664;SDS011;9980;51.020;7.772;2022-10-16T00:46:37;6.03;;;2.80;;
19664;SDS011;9980;51.020;7.772;2022-10-16T00:49:12;5.07;;;3.00;;
19664;SDS011;9980;51.020;7.772;2022-10-16T00:51:52;4.57;;;2.60;;
19664;SDS011;9980;51.020;7.772;2022-10-16T00:54:24;2.40;;;2.20;;
19664;SDS011;9980;51.020;7.772;2022-10-16T00:56:56;5.27;;;2.53;;
19664;SDS011;9980;51.020;7.772;2022-10-16T00:59:29;2.60;;;2.37;;
19664;SDS011;9980;51.020;7.772;2022-10-16T01:02:00;2.93;;;2.33;;
19664;SDS011;9980;51.020;7.772;2022-10-16T01:04:31;2.87;;;2.33;;
19664;SDS011;9980;51.020;7.772;2022-10-16T01:10:02;3.10;;;1.90;;
19664;SDS011;9980;51.020;7.772;2022-10-16T01:12:45;1.90;;;1.80;;
19664;SDS011;9980;51.020;7.772;2022-10-16T01:21:05;2.07;;;1.67;;
19664;SDS011;9980;51.020;7.772;2022-10-16T01:32:34;2.63;;;1.90;;
19664;SDS011;9980;51.020;7.772;2022-10-16T01:38:12;5.90;;;2.00;;
19664;SDS011;9980;51.020;7.772;2022-10-16T01:40:49;1.70;;;1.60;;
19664;SDS011;9980;51.020;7.772;2022-10-16T01:43:28;2.70;;;1.50;;
19664;SDS011;9980;51.020;7.772;2022-10-16T01:46:06;1.50;;;1.40;;
19664;SDS011;9980;51.020;7.772;2022-10-16T01:48:36;2.03;;;1.50;;
19664;SDS011;9980;51.020;7.772;2022-10-16T01:51:09;3.67;;;2.00;;
19664;SDS011;9980;51.020;7.772;2022-10-16T01:53:39;4.30;;;1.70;;
19664;SDS011;9980;51.020;7.772;2022-10-16T01:56:11;1.70;;;1.60;;
19664;SDS011;9980;51.020;7.772;2022-10-16T01:58:44;2.97;;;1.80;;
19664;SDS011;9980;51.020;7.772;2022-10-16T02:01:20;3.17;;;1.30;;
19664;SDS011;9980;51.020;7.772;2022-10-16T02:03:52;1.60;;;1.50;;
19664;SDS011;9980;51.020;7.772;2022-10-16T02:06:23;1.50;;;1.20;;
19664;SDS011;9980;51.020;7.772;2022-10-16T02:08:51;2.03;;;1.70;;
19664;SDS011;9980;51.020;7.772;2022-10-16T02:11:18;2.90;;;1.60;;
19664;SDS011;9980;51.020;7.772;2022-10-16T02:13:46;1.97;;;1.70;;
19664;SDS011;9980;51.020;7.772;2022-10-16T02:16:19;2.63;;;1.40;;
19664;SDS011;9980;51.020;7.772;2022-10-16T02:18:46;1.80;;;1.60;;
19664;SDS011;9980;51.020;7.772;2022-10-16T02:21:26;1.50;;;1.40;;
19664;SDS011;9980;51.020;7.772;2022-10-16T02:24:07;1.70;;;1.60;;
19664;SDS011;9980;51.020;7.772;2022-10-16T02:32:45;2.93;;;1.33;;
19664;SDS011;9980;51.020;7.772;2022-10-16T02:35:16;3.47;;;1.77;;
19664;SDS011;9980;51.020;7.772;2022-10-16T02:37:47;2.93;;;1.60;;
19664;SDS011;9980;51.020;7.772;2022-10-16T02:40:17;6.47;;;1.70;;
19664;SDS011;9980;51.020;7.772;2022-10-16T02:42:50;3.77;;;1.87;;
19664;SDS011;9980;51.020;7.772;2022-10-16T02:45:19;2.57;;;1.83;;
19664;SDS011;9980;51.020;7.772;2022-10-16T02:47:47;2.87;;;1.93;;
19664;SDS011;9980;51.020;7.772;2022-10-16T02:50:15;3.60;;;1.50;;
19664;SDS011;9980;51.020;7.772;2022-10-16T02:52:42;3.47;;;1.60;;
19664;SDS011;9980;51.020;7.772;2022-10-16T02:55:09;4.27;;;1.60;;
19664;SDS011;9980;51.020;7.772;2022-10-16T02:57:36;2.03;;;1.80;;
19664;SDS011;9980;51.020;7.772;2022-10-16T03:00:04;7.97;;;2.50;;
19664;SDS011;9980;51.020;7.772;2022-10-16T03:02:32;4.17;;;2.20;;
19664;SDS011;9980;51.020;7.772;2022-10-16T03:04:59;2.53;;;2.27;;
19664;SDS011;9980;51.020;7.772;2022-10-16T03:07:26;5.23;;;2.87;;
19664;SDS011;9980;51.020;7.772;2022-10-16T03:09:53;3.50;;;2.67;;
19664;SDS011;9980;51.020;7.772;2022-10-16T03:12:21;2.40;;;2.20;;
19664;SDS011;9980;51.020;7.772;2022-10-16T03:14:48;3.60;;;3.30;;
19664;SDS011;9980;51.020;7.772;2022-10-16T03:17:15;8.53;;;3.13;;
19664;SDS011;9980;51.020;7.772;2022-10-16T03:19:42;4.17;;;3.80;;
19664;SDS011;9980;51.020;7.772;2022-10-16T03:22:10;6.90;;;4.30;;
19664;SDS011;9980;51.020;7.772;2022-10-16T03:24:37;3.87;;;3.53;;
19664;SDS011;9980;51.020;7.772;2022-10-16T03:27:04;5.10;;;4.70;;
19664;SDS011;9980;51.020;7.772;2022-10-16T03:29:31;5.30;;;4.90;;
19664;SDS011;9980;51.020;7.772;2022-10-16T03:31:59;5.70;;;5.20;;
19664;SDS011;9980;51.020;7.772;2022-10-16T03:34:26;4.87;;;4.53;;
19664;SDS011;9980;51.020;7.772;2022-10-16T03:36:54;5.13;;;4.73;;
19664;SDS011;9980;51.020;7.772;2022-10-16T03:39:21;5.83;;;5.33;;
19664;SDS011;9980;51.020;7.772;2022-10-16T03:41:48;5.63;;;5.13;;
19664;SDS011;9980;51.020;7.772;2022-10-16T03:44:14;6.07;;;5.53;;
19664;SDS011;9980;51.020;7.772;2022-10-16T03:46:42;6.00;;;5.50;;
19664;SDS011;9980;51.020;7.772;2022-10-16T03:49:09;9.30;;;5.50;;
19664;SDS011;9980;51.020;7.772;2022-10-16T03:51:35;5.97;;;5.50;;
19664;SDS011;9980;51.020;7.772;2022-10-16T03:54:03;5.83;;;5.37;;
19664;SDS011;9980;51.020;7.772;2022-10-16T03:56:30;5.70;;;5.30;;
19664;SDS011;9980;51.020;7.772;2022-10-16T03:58:57;5.87;;;4.87;;
19664;SDS011;9980;51.020;7.772;2022-10-16T04:01:24;5.33;;;4.90;;
19664;SDS011;9980;51.020;7.772;2022-10-16T04:03:51;5.77;;;5.27;;
19664;SDS011;9980;51.020;7.772;2022-10-16T04:06:18;6.03;;;5.43;;
19664;SDS011;9980;51.020;7.772;2022-10-16T04:08:45;7.60;;;5.07;;
19664;SDS011;9980;51.020;7.772;2022-10-16T04:11:12;5.07;;;4.57;;
19664;SDS011;9980;51.020;7.772;2022-10-16T04:13:39;5.63;;;5.13;;
19664;SDS011;9980;51.020;7.772;2022-10-16T04:16:06;4.83;;;4.50;;
19664;SDS011;9980;51.020;7.772;2022-10-16T04:18:33;8.60;;;4.77;;
19664;SDS011;9980;51.020;7.772;2022-10-16T04:21:02;4.77;;;4.30;;
19664;SDS011;9980;51.020;7.772;2022-10-16T04:23:31;4.67;;;4.20;;
19664;SDS011;9980;51.020;7.772;2022-10-16T04:25:59;4.57;;;4.17;;
19664;SDS011;9980;51.020;7.772;2022-10-16T04:28:26;4.10;;;3.80;;
19664;SDS011;9980;51.020;7.772;2022-10-16T04:30:54;4.60;;;4.20;;
19664;SDS011;9980;51.020;7.772;2022-10-16T04:33:21;6.77;;;4.13;;
19664;SDS011;9980;51.020;7.772;2022-10-16T04:35:48;4.47;;;4.07;;
19664;SDS011;9980;51.020;7.772;2022-10-16T04:38:15;4.30;;;3.90;;
19664;SDS011;9980;51.020;7.772;2022-10-16T04:40:42;4.63;;;4.27;;
19664;SDS011;9980;51.020;7.772;2022-10-16T04:43:09;5.77;;;3.83;;
19664;SDS011;9980;51.020;7.772;2022-10-16T04:45:36;5.43;;;4.40;;
19664;SDS011;9980;51.020;7.772;2022-10-16T04:48:03;4.30;;;3.90;;
19664;SDS011;9980;51.020;7.772;2022-10-16T04:50:30;4.90;;;3.70;;
19664;SDS011;9980;51.020;7.772;2022-10-16T04:53:03;5.20;;;3.90;;
19664;SDS011;9980;51.020;7.772;2022-10-16T04:55:31;4.40;;;3.40;;
19664;SDS011;9980;51.020;7.772;2022-10-16T04:57:58;4.23;;;3.53;;
19664;SDS011;9980;51.020;7.772;2022-10-16T05:00:25;9.90;;;3.97;;
19664;SDS011;9980;51.020;7.772;2022-10-16T05:02:52;4.27;;;3.40;;
19664;SDS011;9980;51.020;7.772;2022-10-16T05:05:19;3.23;;;3.03;;
19664;SDS011;9980;51.020;7.772;2022-10-16T05:07:47;4.00;;;3.70;;
19664;SDS011;9980;51.020;7.772;2022-10-16T05:10:15;3.90;;;3.37;;
19664;SDS011;9980;51.020;7.772;2022-10-16T05:12:42;3.40;;;3.10;;
19664;SDS011;9980;51.020;7.772;2022-10-16T05:15:09;4.77;;;3.47;;
19664;SDS011;9980;51.020;7.772;2022-10-16T05:17:37;3.20;;;3.00;;
19664;SDS011;9980;51.020;7.772;2022-10-16T05:20:10;3.90;;;3.57;;
19664;SDS011;9980;51.020;7.772;2022-10-16T05:22:38;4.37;;;3.60;;
19664;SDS011;9980;51.020;7.772;2022-10-16T05:25:05;3.93;;;3.40;;
19664;SDS011;9980;51.020;7.772;2022-10-16T05:27:32;4.23;;;3.90;;
19664;SDS011;9980;51.020;7.772;2022-10-16T05:29:59;3.23;;;3.03;;
19664;SDS011;9980;51.020;7.772;2022-10-16T05:32:26;5.87;;;3.33;;
19664;SDS011;9980;51.020;7.772;2022-10-16T05:34:53;3.40;;;3.10;;
19664;SDS011;9980;51.020;7.772;2022-10-16T05:37:20;3.87;;;3.43;;
19664;SDS011;9980;51.020;7.772;2022-10-16T05:39:47;3.90;;;3.60;;
19664;SDS011;9980;51.020;7.772;2022-10-16T05:42:13;4.17;;;3.77;;
19664;SDS011;9980;51.020;7.772;2022-10-16T05:44:41;3.80;;;3.50;;
19664;SDS011;9980;51.020;7.772;2022-10-16T05:47:08;3.40;;;3.13;;
19664;SDS011;9980;51.020;7.772;2022-10-16T05:49:36;4.97;;;4.33;;
19664;SDS011;9980;51.020;7.772;2022-10-16T05:52:06;5.90;;;4.00;;
19664;SDS011;9980;51.020;7.772;2022-10-16T05:54:33;4.13;;;3.60;;
19664;SDS011;9980;51.020;7.772;2022-10-16T05:57:00;3.67;;;3.37;;
19664;SDS011;9980;51.020;7.772;2022-10-16T05:59:28;4.90;;;3.80;;
19664;SDS011;9980;51.020;7.772;2022-10-16T06:01:55;3.47;;;3.27;;
19664;SDS011;9980;51.020;7.772;2022-10-16T06:04:21;4.03;;;3.73;;
19664;SDS011;9980;51.020;7.772;2022-10-16T06:06:49;5.60;;;4.23;;
19664;SDS011;9980;51.020;7.772;2022-10-16T06:09:15;3.80;;;3.60;;
19664;SDS011;9980;51.020;7.772;2022-10-16T06:11:42;3.77;;;3.57;;
19664;SDS011;9980;51.020;7.772;2022-10-16T06:14:09;3.97;;;3.67;;
19664;SDS011;9980;51.020;7.772;2022-10-16T06:16:36;4.37;;;3.33;;
19664;SDS011;9980;51.020;7.772;2022-10-16T06:19:04;4.00;;;3.70;;
19664;SDS011;9980;51.020;7.772;2022-10-16T06:21:34;4.07;;;3.70;;
19664;SDS011;9980;51.020;7.772;2022-10-16T06:24:01;5.03;;;3.63;;
19664;SDS011;9980;51.020;7.772;2022-10-16T06:26:29;4.00;;;3.63;;
19664;SDS011;9980;51.020;7.772;2022-10-16T06:28:58;3.40;;;3.10;;
19664;SDS011;9980;51.020;7.772;2022-10-16T06:31:26;3.67;;;3.47;;
19664;SDS011;9980;51.020;7.772;2022-10-16T06:33:57;3.87;;;3.47;;
19664;SDS011;9980;51.020;7.772;2022-10-16T06:36:25;5.50;;;4.20;;
19664;SDS011;9980;51.020;7.772;2022-10-16T06:38:53;3.30;;;3.07;;
19664;SDS011;9980;51.020;7.772;2022-10-16T06:41:21;3.27;;;2.97;;
19664;SDS011;9980;51.020;7.772;2022-10-16T06:43:49;2.90;;;2.70;;
19664;SDS011;9980;51.020;7.772;2022-10-16T06:46:17;3.60;;;3.30;;
19664;SDS011;9980;51.020;7.772;2022-10-16T06:48:47;4.07;;;2.90;;
19664;SDS011;9980;51.020;7.772;2022-10-16T06:51:22;3.07;;;2.77;;
19664;SDS011;9980;51.020;7.772;2022-10-16T06:53:52;3.87;;;2.67;;
19664;SDS011;9980;51.020;7.772;2022-10-16T06:56:30;3.67;;;2.57;;
19664;SDS011;9980;51.020;7.772;2022-10-16T06:58:59;3.23;;;2.93;;
19664;SDS011;9980;51.020;7.772;2022-10-16T07:01:27;3.30;;;3.00;;
19664;SDS011;9980;51.020;7.772;2022-10-16T07:03:54;3.30;;;3.00;;
19664;SDS011;9980;51.020;7.772;2022-10-16T07:06:22;5.17;;;2.70;;
19664;SDS011;9980;51.020;7.772;2022-10-16T07:08:52;3.30;;;2.87;;
19664;SDS011;9980;51.020;7.772;2022-10-16T07:11:22;3.17;;;2.87;;
19664;SDS011;9980;51.020;7.772;2022-10-16T07:13:50;3.80;;;2.50;;
19664;SDS011;9980;51.020;7.772;2022-10-16T07:16:23;2.60;;;2.40;;
19664;SDS011;9980;51.020;7.772;2022-10-16T07:18:55;3.73;;;2.50;;
19664;SDS011;9980;51.020;7.772;2022-10-16T07:21:27;2.77;;;2.23;;
19664;SDS011;9980;51.020;7.772;2022-10-16T07:24:04;5.40;;;3.13;;
19664;SDS011;9980;51.020;7.772;2022-10-16T07:26:37;2.63;;;2.20;;
19664;SDS011;9980;51.020;7.772;2022-10-16T07:29:12;2.60;;;2.33;;
19664;SDS011;9980;51.020;7.772;2022-10-16T07:31:43;2.20;;;2.00;;
19664;SDS011;9980;51.020;7.772;2022-10-16T07:34:11;1.90;;;1.80;;
19664;SDS011;9980;51.020;7.772;2022-10-16T07:36:40;2.00;;;1.80;;
19664;SDS011;9980;51.020;7.772;2022-10-16T07:39:07;2.07;;;1.87;;
19664;SDS011;9980;51.020;7.772;2022-10-16T07:41:35;3.80;;;1.87;;
19664;SDS011;9980;51.020;7.772;2022-10-16T07:44:03;2.10;;;1.90;;
19664;SDS011;9980;51.020;7.772;2022-10-16T07:46:30;1.87;;;1.77;;
19664;SDS011;9980;51.020;7.772;2022-10-16T07:48:59;1.73;;;1.63;;
19664;SDS011;9980;51.020;7.772;2022-10-16T07:51:26;1.70;;;1.60;;
19664;SDS011;9980;51.020;7.772;2022-10-16T07:53:53;3.13;;;1.67;;
19664;SDS011;9980;51.020;7.772;2022-10-16T07:56:21;1.63;;;1.40;;
19664;SDS011;9980;51.020;7.772;2022-10-16T07:58:49;3.33;;;1.20;;
19664;SDS011;9980;51.020;7.772;2022-10-16T08:01:17;1.73;;;1.40;;
19664;SDS011;9980;51.020;7.772;2022-10-16T08:03:46;1.37;;;1.27;;
19664;SDS011;9980;51.020;7.772;2022-10-16T08:06:18;1.63;;;1.40;;
19664;SDS011;9980;51.020;7.772;2022-10-16T08:08:53;5.17;;;1.50;;
19664;SDS011;9980;51.020;7.772;2022-10-16T08:11:21;3.90;;;1.47;;
19664;SDS011;9980;51.020;7.772;2022-10-16T08:13:49;1.23;;;1.13;;
19664;SDS011;9980;51.020;7.772;2022-10-16T08:16:16;4.90;;;1.53;;
19664;SDS011;9980;51.020;7.772;2022-10-16T08:18:44;2.70;;;1.33;;
19664;SDS011;9980;51.020;7.772;2022-10-16T08:21:15;1.20;;;1.20;;
19664;SDS011;9980;51.020;7.772;2022-10-16T08:23:47;2.80;;;1.43;;
19664;SDS011;9980;51.020;7.772;2022-10-16T08:26:23;2.40;;;1.30;;
19664;SDS011;9980;51.020;7.772;2022-10-16T08:28:52;2.43;;;1.50;;
19664;SDS011;9980;51.020;7.772;2022-10-16T08:31:19;2.20;;;1.37;;
19664;SDS011;9980;51.020;7.772;2022-10-16T08:33:47;1.67;;;1.23;;
19664;SDS011;9980;51.020;7.772;2022-10-16T08:36:15;1.70;;;1.47;;
19664;SDS011;9980;51.020;7.772;2022-10-16T08:38:46;4.20;;;1.57;;
19664;SDS011;9980;51.020;7.772;2022-10-16T08:47:18;2.50;;;1.30;;
19664;SDS011;9980;51.020;7.772;2022-10-16T08:49:58;1.40;;;1.30;;
19664;SDS011;9980;51.020;7.772;2022-10-16T08:52:35;2.00;;;1.30;;
19664;SDS011;9980;51.020;7.772;2022-10-16T08:56:08;2.50;;;1.37;;
19664;SDS011;9980;51.020;7.772;2022-10-16T08:58:10;1.87;;;1.40;;
19664;SDS011;9980;51.020;7.772;2022-10-16T09:00:45;4.07;;;1.23;;
19664;SDS011;9980;51.020;7.772;2022-10-16T09:03:28;1.27;;;1.17;;
19664;SDS011;9980;51.020;7.772;2022-10-16T09:12:15;1.40;;;1.30;;
19664;SDS011;9980;51.020;7.772;2022-10-16T09:14:58;1.50;;;1.30;;
19664;SDS011;9980;51.020;7.772;2022-10-16T09:18:05;2.30;;;1.30;;
19664;SDS011;9980;51.020;7.772;2022-10-16T09:21:16;1.23;;;1.13;;
19664;SDS011;9980;51.020;7.772;2022-10-16T09:23:56;2.37;;;1.20;;
19664;SDS011;9980;51.020;7.772;2022-10-16T09:26:31;1.50;;;0.97;;
19664;SDS011;9980;51.020;7.772;2022-10-16T09:28:58;1.20;;;1.10;;
19664;SDS011;9980;51.020;7.772;2022-10-16T09:31:25;3.30;;;1.13;;
19664;SDS011;9980;51.020;7.772;2022-10-16T09:33:55;1.07;;;1.00;;
19664;SDS011;9980;51.020;7.772;2022-10-16T09:36:30;1.10;;;1.00;;
19664;SDS011;9980;51.020;7.772;2022-10-16T09:39:09;1.10;;;1.00;;
19664;SDS011;9980;51.020;7.772;2022-10-16T09:41:42;1.10;;;1.00;;
19664;SDS011;9980;51.020;7.772;2022-10-16T09:44:19;1.53;;;1.00;;
19664;SDS011;9980;51.020;7.772;2022-10-16T09:50:20;1.50;;;1.20;;
19664;SDS011;9980;51.020;7.772;2022-10-16T09:53:11;1.00;;;0.90;;
19664;SDS011;9980;51.020;7.772;2022-10-16T09:55:50;1.53;;;0.90;;
19664;SDS011;9980;51.020;7.772;2022-10-16T09:58:22;1.23;;;1.00;;
19664;SDS011;9980;51.020;7.772;2022-10-16T10:00:51;2.20;;;0.90;;
19664;SDS011;9980;51.020;7.772;2022-10-16T10:03:42;0.70;;;0.70;;
19664;SDS011;9980;51.020;7.772;2022-10-16T10:06:21;1.47;;;1.30;;
19664;SDS011;9980;51.020;7.772;2022-10-16T10:08:59;1.80;;;1.00;;
19664;SDS011;9980;51.020;7.772;2022-10-16T10:14:49;2.73;;;0.97;;
19664;SDS011;9980;51.020;7.772;2022-10-16T10:17:18;2.33;;;0.90;;
19664;SDS011;9980;51.020;7.772;2022-10-16T10:19:57;0.90;;;0.90;;
19664;SDS011;9980;51.020;7.772;2022-10-16T10:23:01;1.53;;;0.90;;
19664;SDS011;9980;51.020;7.772;2022-10-16T10:31:36;2.27;;;1.00;;
19664;SDS011;9980;51.020;7.772;2022-10-16T10:34:51;2.00;;;0.73;;
19664;SDS011;9980;51.020;7.772;2022-10-16T10:43:32;3.17;;;0.70;;
19664;SDS011;9980;51.020;7.772;2022-10-16T10:46:41;1.50;;;0.80;;
19664;SDS011;9980;51.020;7.772;2022-10-16T10:49:34;1.13;;;0.70;;
19664;SDS011;9980;51.020;7.772;2022-10-16T11:01:10;0.80;;;0.70;;
19664;SDS011;9980;51.020;7.772;2022-10-16T11:06:55;1.37;;;0.70;;
19664;SDS011;9980;51.020;7.772;2022-10-16T11:09:33;5.07;;;1.73;;
19664;SDS011;9980;51.020;7.772;2022-10-16T11:12:11;2.47;;;1.10;;
19664;SDS011;9980;51.020;7.772;2022-10-16T11:15:18;6.00;;;2.07;;
19664;SDS011;9980;51.020;7.772;2022-10-16T11:20:47;3.37;;;0.77;;
19664;SDS011;9980;51.020;7.772;2022-10-16T11:26:23;2.00;;;0.80;;
19664;SDS011;9980;51.020;7.772;2022-10-16T11:29:00;0.70;;;0.70;;
19664;SDS011;9980;51.020;7.772;2022-10-16T11:34:31;1.43;;;0.70;;
19664;SDS011;9980;51.020;7.772;2022-10-16T11:37:15;2.00;;;0.70;;
19664;SDS011;9980;51.020;7.772;2022-10-16T11:39:50;0.93;;;0.70;;
19664;SDS011;9980;51.020;7.772;2022-10-16T11:42:28;2.80;;;0.97;;
19664;SDS011;9980;51.020;7.772;2022-10-16T11:45:08;0.80;;;0.60;;
19664;SDS011;9980;51.020;7.772;2022-10-16T11:48:07;1.27;;;0.60;;
19664;SDS011;9980;51.020;7.772;2022-10-16T11:50:53;2.80;;;0.70;;
19664;SDS011;9980;51.020;7.772;2022-10-16T11:53:52;0.80;;;0.60;;
19664;SDS011;9980;51.020;7.772;2022-10-16T11:56:38;0.70;;;0.70;;
19664;SDS011;9980;51.020;7.772;2022-10-16T11:59:13;1.13;;;0.60;;
19664;SDS011;9980;51.020;7.772;2022-10-16T12:01:44;0.67;;;0.60;;
19664;SDS011;9980;51.020;7.772;2022-10-16T12:04:31;0.83;;;0.60;;
19664;SDS011;9980;51.020;7.772;2022-10-16T12:07:12;2.13;;;0.70;;
19664;SDS011;9980;51.020;7.772;2022-10-16T12:09:48;2.90;;;0.70;;
19664;SDS011;9980;51.020;7.772;2022-10-16T12:17:52;2.90;;;0.87;;
19664;SDS011;9980;51.020;7.772;2022-10-16T12:23:03;2.27;;;0.70;;
19664;SDS011;9980;51.020;7.772;2022-10-16T12:25:33;1.27;;;0.67;;
19664;SDS011;9980;51.020;7.772;2022-10-16T12:28:18;1.47;;;0.70;;
19664;SDS011;9980;51.020;7.772;2022-10-16T12:30:52;2.33;;;0.83;;
19664;SDS011;9980;51.020;7.772;2022-10-16T12:36:00;1.57;;;0.90;;
19664;SDS011;9980;51.020;7.772;2022-10-16T12:38:45;1.33;;;0.70;;
19664;SDS011;9980;51.020;7.772;2022-10-16T12:41:28;0.70;;;0.70;;
19664;SDS011;9980;51.020;7.772;2022-10-16T12:44:20;1.07;;;0.70;;
19664;SDS011;9980;51.020;7.772;2022-10-16T12:46:54;1.83;;;0.77;;
19664;SDS011;9980;51.020;7.772;2022-10-16T12:49:22;1.47;;;0.63;;
19664;SDS011;9980;51.020;7.772;2022-10-16T12:52:04;1.80;;;0.60;;
19664;SDS011;9980;51.020;7.772;2022-10-16T12:54:55;0.67;;;0.60;;
19664;SDS011;9980;51.020;7.772;2022-10-16T13:00:32;0.70;;;0.70;;
19664;SDS011;9980;51.020;7.772;2022-10-16T13:11:57;1.23;;;0.63;;
19664;SDS011;9980;51.020;7.772;2022-10-16T13:14:41;0.60;;;0.60;;
19664;SDS011;9980;51.020;7.772;2022-10-16T13:23:16;2.20;;;0.60;;
19664;SDS011;9980;51.020;7.772;2022-10-16T13:28:42;0.93;;;0.70;;
19664;SDS011;9980;51.020;7.772;2022-10-16T13:31:13;2.77;;;1.00;;
19664;SDS011;9980;51.020;7.772;2022-10-16T13:33:48;1.63;;;1.00;;
19664;SDS011;9980;51.020;7.772;2022-10-16T13:36:22;3.33;;;1.10;;
19664;SDS011;9980;51.020;7.772;2022-10-16T13:44:49;2.87;;;1.63;;
19664;SDS011;9980;51.020;7.772;2022-10-16T13:47:20;2.60;;;1.00;;
19664;SDS011;9980;51.020;7.772;2022-10-16T13:50:03;0.93;;;0.80;;
19664;SDS011;9980;51.020;7.772;2022-10-16T13:52:35;1.97;;;1.77;;
19664;SDS011;9980;51.020;7.772;2022-10-16T13:55:04;3.20;;;1.03;;
19664;SDS011;9980;51.020;7.772;2022-10-16T13:57:39;1.10;;;0.60;;
19664;SDS011;9980;51.020;7.772;2022-10-16T14:00:18;1.47;;;0.70;;
19664;SDS011;9980;51.020;7.772;2022-10-16T14:03:03;2.53;;;0.70;;
19664;SDS011;9980;51.020;7.772;2022-10-16T14:05:47;1.03;;;0.70;;
19664;SDS011;9980;51.020;7.772;2022-10-16T14:08:19;1.50;;;0.70;;
19664;SDS011;9980;51.020;7.772;2022-10-16T14:10:51;3.47;;;1.13;;
19664;SDS011;9980;51.020;7.772;2022-10-16T14:13:32;1.83;;;0.97;;
19664;SDS011;9980;51.020;7.772;2022-10-16T14:16:09;1.53;;;0.87;;
19664;SDS011;9980;51.020;7.772;2022-10-16T14:18:48;3.80;;;0.80;;
19664;SDS011;9980;51.020;7.772;2022-10-16T14:21:36;0.90;;;0.90;;
19664;SDS011;9980;51.020;7.772;2022-10-16T14:24:13;2.93;;;1.10;;
19664;SDS011;9980;51.020;7.772;2022-10-16T14:26:56;0.80;;;0.80;;
19664;SDS011;9980;51.020;7.772;2022-10-16T14:29:25;1.50;;;0.80;;
19664;SDS011;9980;51.020;7.772;2022-10-16T14:32:03;0.67;;;0.67;;
19664;SDS011;9980;51.020;7.772;2022-10-16T14:34:33;1.10;;;1.00;;
19664;SDS011;9980;51.020;7.772;2022-10-16T14:39:53;1.40;;;1.00;;
19664;SDS011;9980;51.020;7.772;2022-10-16T14:42:23;2.00;;;0.90;;
19664;SDS011;9980;51.020;7.772;2022-10-16T14:44:52;1.30;;;0.93;;
19664;SDS011;9980;51.020;7.772;2022-10-16T14:47:22;6.90;;;1.70;;
19664;SDS011;9980;51.020;7.772;2022-10-16T14:49:53;6.47;;;2.00;;
19664;SDS011;9980;51.020;7.772;2022-10-16T14:52:22;3.67;;;1.00;;
19664;SDS011;9980;51.020;7.772;2022-10-16T14:54:49;4.77;;;1.23;;
19664;SDS011;9980;51.020;7.772;2022-10-16T14:57:18;3.30;;;1.17;;
19664;SDS011;9980;51.020;7.772;2022-10-16T14:59:53;4.53;;;1.40;;
19664;SDS011;9980;51.020;7.772;2022-10-16T15:04:48;5.50;;;4.77;;
19664;SDS011;9980;51.020;7.772;2022-10-16T15:07:15;6.23;;;3.90;;
19664;SDS011;9980;51.020;7.772;2022-10-16T15:09:42;3.00;;;1.63;;
19664;SDS011;9980;51.020;7.772;2022-10-16T15:12:14;1.83;;;1.30;;
19664;SDS011;9980;51.020;7.772;2022-10-16T15:14:42;2.20;;;1.93;;
19664;SDS011;9980;51.020;7.772;2022-10-16T15:17:10;1.80;;;1.63;;
19664;SDS011;9980;51.020;7.772;2022-10-16T15:19:38;1.90;;;1.00;;
19664;SDS011;9980;51.020;7.772;2022-10-16T15:22:05;2.50;;;1.53;;
19664;SDS011;9980;51.020;7.772;2022-10-16T15:24:32;1.00;;;0.90;;
19664;SDS011;9980;51.020;7.772;2022-10-16T15:26:59;7.40;;;2.30;;
19664;SDS011;9980;51.020;7.772;2022-10-16T15:29:25;11.97;;;3.67;;
19664;SDS011;9980;51.020;7.772;2022-10-16T15:31:52;3.77;;;1.53;;
19664;SDS011;9980;51.020;7.772;2022-10-16T15:34:19;1.50;;;1.40;;
19664;SDS011;9980;51.020;7.772;2022-10-16T15:36:46;4.33;;;1.73;;
19664;SDS011;9980;51.020;7.772;2022-10-16T15:41:46;4.50;;;1.07;;
19664;SDS011;9980;51.020;7.772;2022-10-16T15:44:17;5.03;;;1.27;;
19664;SDS011;9980;51.020;7.772;2022-10-16T15:46:44;3.43;;;0.93;;
19664;SDS011;9980;51.020;7.772;2022-10-16T15:49:11;1.43;;;0.90;;
19664;SDS011;9980;51.020;7.772;2022-10-16T15:51:39;3.70;;;1.03;;
19664;SDS011;9980;51.020;7.772;2022-10-16T15:54:08;4.67;;;1.00;;
19664;SDS011;9980;51.020;7.772;2022-10-16T15:56:35;1.87;;;0.93;;
19664;SDS011;9980;51.020;7.772;2022-10-16T15:59:03;2.37;;;0.70;;
19664;SDS011;9980;51.020;7.772;2022-10-16T16:01:32;4.57;;;1.30;;
19664;SDS011;9980;51.020;7.772;2022-10-16T16:04:02;2.23;;;0.80;;
19664;SDS011;9980;51.020;7.772;2022-10-16T16:06:40;8.77;;;1.20;;
19664;SDS011;9980;51.020;7.772;2022-10-16T16:09:11;1.00;;;0.63;;
19664;SDS011;9980;51.020;7.772;2022-10-16T16:11:39;1.80;;;0.70;;
19664;SDS011;9980;51.020;7.772;2022-10-16T16:14:07;1.07;;;0.90;;
19664;SDS011;9980;51.020;7.772;2022-10-16T16:16:39;2.73;;;1.23;;
19664;SDS011;9980;51.020;7.772;2022-10-16T16:19:07;2.73;;;1.00;;
19664;SDS011;9980;51.020;7.772;2022-10-16T16:21:37;2.43;;;0.80;;
19664;SDS011;9980;51.020;7.772;2022-10-16T16:24:04;4.13;;;0.90;;
19664;SDS011;9980;51.020;7.772;2022-10-16T16:26:35;4.03;;;0.90;;
19664;SDS011;9980;51.020;7.772;2022-10-16T16:29:05;5.80;;;1.00;;
19664;SDS011;9980;51.020;7.772;2022-10-16T16:31:33;3.83;;;1.00;;
19664;SDS011;9980;51.020;7.772;2022-10-16T16:34:00;3.73;;;2.00;;
19664;SDS011;9980;51.020;7.772;2022-10-16T16:36:27;3.47;;;1.83;;
19664;SDS011;9980;51.020;7.772;2022-10-16T16:38:55;2.97;;;1.43;;
19664;SDS011;9980;51.020;7.772;2022-10-16T16:41:24;3.13;;;1.20;;
19664;SDS011;9980;51.020;7.772;2022-10-16T16:43:54;5.27;;;1.50;;
19664;SDS011;9980;51.020;7.772;2022-10-16T16:46:26;2.30;;;1.10;;
19664;SDS011;9980;51.020;7.772;2022-10-16T16:48:53;2.57;;;1.30;;
19664;SDS011;9980;51.020;7.772;2022-10-16T16:51:21;3.10;;;1.33;;
19664;SDS011;9980;51.020;7.772;2022-10-16T16:53:49;3.27;;;1.43;;
19664;SDS011;9980;51.020;7.772;2022-10-16T16:56:19;5.17;;;1.30;;
19664;SDS011;9980;51.020;7.772;2022-10-16T16:58:48;4.77;;;1.20;;
19664;SDS011;9980;51.020;7.772;2022-10-16T17:01:18;3.27;;;1.23;;
19664;SDS011;9980;51.020;7.772;2022-10-16T17:03:47;3.50;;;1.60;;
19664;SDS011;9980;51.020;7.772;2022-10-16T17:06:22;8.37;;;1.10;;
19664;SDS011;9980;51.020;7.772;2022-10-16T17:08:53;2.07;;;1.10;;
19664;SDS011;9980;51.020;7.772;2022-10-16T17:11:22;4.47;;;2.27;;
19664;SDS011;9980;51.020;7.772;2022-10-16T17:13:53;2.33;;;1.97;;
19664;SDS011;9980;51.020;7.772;2022-10-16T17:16:28;2.60;;;1.50;;
19664;SDS011;9980;51.020;7.772;2022-10-16T17:19:02;1.80;;;1.20;;
19664;SDS011;9980;51.020;7.772;2022-10-16T17:21:36;4.00;;;1.73;;
19664;SDS011;9980;51.020;7.772;2022-10-16T17:24:04;2.23;;;2.00;;
19664;SDS011;9980;51.020;7.772;2022-10-16T17:26:31;7.60;;;2.50;;
19664;SDS011;9980;51.020;7.772;2022-10-16T17:29:03;5.77;;;2.50;;
19664;SDS011;9980;51.020;7.772;2022-10-16T17:31:34;8.87;;;3.20;;
19664;SDS011;9980;51.020;7.772;2022-10-16T17:34:03;6.07;;;3.97;;